createdAt,value
2022-10-15T00:00:38.544Z,95550.41
2022-10-15T00:03:04.997Z,95555.75
2022-10-15T00:05:31.344Z,95558.41
2022-10-15T00:07:58.411Z,95537.34
2022-10-15T00:10:24.745Z,95550.41
2022-10-15T00:12:51.114Z,95554.72
2022-10-15T00:15:18.707Z,95549.94
2022-10-15T00:17:45.076Z,95556.56
2022-10-15T00:20:11.703Z,95553.66
2022-10-15T00:22:38.756Z,95548.34
2022-10-15T00:25:06.407Z,95547.53
2022-10-15T00:27:36.624Z,95550.41
2022-10-15T00:30:05.004Z,95547.53
2022-10-15T00:32:31.603Z,95551.00
2022-10-15T00:34:58.107Z,95555.53
2022-10-15T00:37:25.292Z,95549.94
2022-10-15T00:39:52.400Z,95543.03
2022-10-15T00:42:18.790Z,95546.72
2022-10-15T00:44:52.278Z,95536.06
2022-10-15T00:47:25.403Z,95544.63
2022-10-15T00:50:20.416Z,95542.19
2022-10-15T00:53:05.067Z,95531.31
2022-10-15T00:55:34.958Z,95535.59
2022-10-15T00:58:06.966Z,95526.78
2022-10-15T01:00:34.167Z,95530.25
2022-10-15T01:03:00.992Z,95532.94
2022-10-15T01:05:27.643Z,95535.59
2022-10-15T01:07:53.980Z,95523.31
2022-10-15T01:10:22.317Z,95527.81
2022-10-15T01:13:14.703Z,95524.69
2022-10-15T01:16:03.027Z,95524.69
2022-10-15T01:18:39.780Z,95514.28
2022-10-15T01:21:28.527Z,95504.75
2022-10-15T01:24:23.327Z,95512.19
2022-10-15T01:27:21.497Z,95507.41
2022-10-15T01:30:16.087Z,95499.44
2022-10-15T01:33:00.934Z,95500.25
2022-10-15T01:35:44.611Z,95493.03
2022-10-15T01:38:33.306Z,95485.03
2022-10-15T01:41:12.209Z,95492.00
2022-10-15T01:43:47.524Z,95489.91
2022-10-15T01:46:25.332Z,95490.72
2022-10-15T01:48:55.098Z,95480.88
2022-10-15T01:51:24.357Z,95488.38
2022-10-15T01:53:52.087Z,95483.63
2022-10-15T01:56:24.301Z,95485.22
2022-10-15T01:58:55.091Z,95485.22
2022-10-15T02:01:22.166Z,95470.88
2022-10-15T02:03:54.243Z,95468.25
2022-10-15T02:06:32.186Z,95464.31
2022-10-15T02:09:09.263Z,95472.06
2022-10-15T02:11:55.204Z,95468.91
2022-10-15T02:14:35.298Z,95464.94
2022-10-15T02:17:11.710Z,95462.53
2022-10-15T02:19:43.066Z,95471.09
2022-10-15T02:22:14.483Z,95472.47
2022-10-15T02:24:50.535Z,95466.31
2022-10-15T02:27:21.037Z,95460.19
2022-10-15T02:29:51.035Z,95455.66
2022-10-15T02:32:21.186Z,95463.66
2022-10-15T02:34:49.962Z,95451.97
2022-10-15T02:37:21.000Z,95462.09
2022-10-15T02:39:47.462Z,95457.34
2022-10-15T02:42:16.646Z,95458.72
2022-10-15T02:44:43.619Z,95445.66
2022-10-15T02:47:11.227Z,95448.94
2022-10-15T02:49:37.703Z,95446.53
2022-10-15T02:52:05.235Z,95446.28
2022-10-15T02:54:31.695Z,95444.16
2022-10-15T02:56:58.488Z,95439.97
2022-10-15T02:59:24.828Z,95448.28
2022-10-15T03:01:51.210Z,95440.50
2022-10-15T03:04:18.219Z,95441.09
2022-10-15T03:06:44.798Z,95436.31
2022-10-15T03:09:12.060Z,95439.56
2022-10-15T03:11:39.735Z,95445.19
2022-10-15T03:14:06.326Z,95451.31
2022-10-15T03:16:32.702Z,95442.28
2022-10-15T03:18:59.603Z,95442.03
2022-10-15T03:21:25.997Z,95444.44
2022-10-15T03:23:52.303Z,95449.56
2022-10-15T03:26:19.295Z,95446.16
2022-10-15T03:28:45.643Z,95448.56
2022-10-15T03:31:14.118Z,95439.25
2022-10-15T03:33:40.969Z,95440.84
2022-10-15T03:36:07.977Z,95437.78
2022-10-15T03:38:34.684Z,95444.69
2022-10-15T03:41:01.607Z,95444.28
2022-10-15T03:43:28.038Z,95445.66
2022-10-15T03:45:54.367Z,95446.78
2022-10-15T03:48:21.502Z,95439.59
2022-10-15T03:50:47.827Z,95450.28
2022-10-15T03:53:14.327Z,95443.88
2022-10-15T03:55:41.090Z,95446.03
2022-10-15T03:58:08.024Z,95447.09
2022-10-15T04:00:34.359Z,95454.59
2022-10-15T04:03:00.687Z,95456.47
2022-10-15T04:05:27.419Z,95455.91
2022-10-15T04:07:53.745Z,95452.25
2022-10-15T04:10:20.067Z,95458.91
2022-10-15T04:12:47.159Z,95450.34
2022-10-15T04:15:13.474Z,95460.50
2022-10-15T04:17:39.969Z,95461.56
2022-10-15T04:20:07.175Z,95461.00
2022-10-15T04:22:34.165Z,95457.59
2022-10-15T04:25:00.511Z,95472.25
2022-10-15T04:27:27.449Z,95477.31
2022-10-15T04:29:53.752Z,95481.84
2022-10-15T04:32:20.270Z,95485.56
2022-10-15T04:34:47.826Z,95484.28
2022-10-15T04:37:14.710Z,95488.25
2022-10-15T04:39:41.087Z,95491.47
2022-10-15T04:42:07.414Z,95492.50
2022-10-15T04:44:34.303Z,95506.66
2022-10-15T04:47:01.264Z,95504.81
2022-10-15T04:49:27.579Z,95510.97
2022-10-15T04:51:54.463Z,95506.09
2022-10-15T04:54:20.968Z,95506.41
2022-10-15T04:56:47.300Z,95515.97
2022-10-15T04:59:14.123Z,95512.81
2022-10-15T05:01:40.453Z,95518.63
2022-10-15T05:04:06.784Z,95524.53
2022-10-15T05:06:33.922Z,95525.03
2022-10-15T05:09:02.336Z,95530.38
2022-10-15T05:11:28.771Z,95526.63
2022-10-15T05:13:56.750Z,95527.19
2022-10-15T05:16:28.921Z,95537.78
2022-10-15T05:18:58.211Z,95538.94
2022-10-15T05:21:25.104Z,95533.59
2022-10-15T05:23:52.284Z,95544.50
2022-10-15T05:26:24.198Z,95543.13
2022-10-15T05:28:51.312Z,95551.22
2022-10-15T05:31:20.452Z,95551.22
2022-10-15T05:33:52.248Z,95549.06
2022-10-15T05:36:22.494Z,95558.19
2022-10-15T05:38:55.178Z,95553.31
2022-10-15T05:41:22.803Z,95546.38
2022-10-15T05:43:50.769Z,95545.56
2022-10-15T05:46:18.295Z,95554.31
2022-10-15T05:48:50.397Z,95553.25
2022-10-15T05:51:17.028Z,95549.53
2022-10-15T05:53:46.019Z,95557.63
2022-10-15T05:56:14.486Z,95566.66
2022-10-15T05:58:41.166Z,95568.47
2022-10-15T06:01:10.222Z,95565.28
2022-10-15T06:03:37.299Z,95565.63
2022-10-15T06:06:03.940Z,95575.22
2022-10-15T06:08:32.165Z,95578.41
2022-10-15T06:11:08.402Z,95580.81
2022-10-15T06:13:38.100Z,95579.53
2022-10-15T06:16:05.205Z,95587.28
2022-10-15T06:18:32.291Z,95580.34
2022-10-15T06:20:58.699Z,95588.34
2022-10-15T06:23:25.411Z,95596.66
2022-10-15T06:25:51.937Z,95594.13
2022-10-15T06:28:18.372Z,95606.41
2022-10-15T06:30:45.084Z,95603.50
2022-10-15T06:35:43.488Z,95616.13
2022-10-15T06:38:10.273Z,95620.38
2022-10-15T06:40:38.476Z,95621.19
2022-10-15T06:43:11.199Z,95625.25
2022-10-15T06:45:39.486Z,95629.03
2022-10-15T06:48:06.947Z,95627.25
2022-10-15T06:50:35.083Z,95627.53
2022-10-15T06:53:01.438Z,95640.41
2022-10-15T06:55:28.989Z,95641.53
2022-10-15T06:57:56.764Z,95647.41
2022-10-15T07:00:24.294Z,95656.47
2022-10-15T07:02:51.545Z,95655.13
2022-10-15T07:05:18.915Z,95658.59
2022-10-15T07:07:55.585Z,95665.06
2022-10-15T07:10:23.578Z,95663.50
2022-10-15T07:12:50.083Z,95666.19
2022-10-15T07:15:16.888Z,95663.03
2022-10-15T07:18:01.989Z,95671.03
2022-10-15T07:20:31.975Z,95677.41
2022-10-15T07:23:00.011Z,95675.31
2022-10-15T07:25:27.660Z,95674.31
2022-10-15T07:27:55.187Z,95676.94
2022-10-15T07:30:22.822Z,95686.00
2022-10-15T07:32:50.289Z,95689.28
2022-10-15T07:35:16.883Z,95689.59
2022-10-15T07:37:43.251Z,95688.91
2022-10-15T07:40:10.154Z,95701.75
2022-10-15T07:42:36.526Z,95701.34
2022-10-15T07:45:03.211Z,95705.88
2022-10-15T07:47:29.886Z,95711.31
2022-10-15T07:49:56.209Z,95716.28
2022-10-15T07:52:22.695Z,95708.66
2022-10-15T07:54:49.299Z,95716.09
2022-10-15T07:57:17.552Z,95715.78
2022-10-15T07:59:43.869Z,95711.28
2022-10-15T08:02:17.506Z,95718.41
2022-10-15T08:04:44.006Z,95711.66
2022-10-15T08:07:10.618Z,95708.47
2022-10-15T08:09:37.486Z,95703.34
2022-10-15T08:12:06.114Z,95710.91
2022-10-15T08:14:33.827Z,95722.53
2022-10-15T08:17:05.087Z,95723.97
2022-10-15T08:19:32.588Z,95714.88
2022-10-15T08:21:59.000Z,95719.78
2022-10-15T08:24:25.531Z,95724.34
2022-10-15T08:26:52.436Z,95724.09
2022-10-15T08:29:18.759Z,95718.97
2022-10-15T08:31:45.134Z,95726.25
2022-10-15T08:34:11.904Z,95725.16
2022-10-15T08:36:38.218Z,95725.59
2022-10-15T08:39:07.136Z,95737.31
2022-10-15T08:41:43.135Z,95741.06
2022-10-15T08:44:45.894Z,95741.50
2022-10-15T08:47:40.454Z,95748.03
2022-10-15T08:50:17.134Z,95758.00
2022-10-15T08:52:47.575Z,95755.69
2022-10-15T08:55:17.109Z,95745.53
2022-10-15T08:57:52.408Z,95759.84
2022-10-15T09:00:24.674Z,95747.13
2022-10-15T09:03:04.305Z,95755.16
2022-10-15T09:05:35.957Z,95748.84
2022-10-15T09:08:21.012Z,95753.09
2022-10-15T09:10:52.239Z,95756.94
2022-10-15T09:13:27.933Z,95758.09
2022-10-15T09:16:02.026Z,95768.13
2022-10-15T09:18:33.522Z,95761.22
2022-10-15T09:21:02.576Z,95767.03
2022-10-15T09:23:32.230Z,95761.88
2022-10-15T09:26:06.515Z,95759.31
2022-10-15T09:28:43.555Z,95774.00
2022-10-15T09:31:15.555Z,95770.09
2022-10-15T09:33:48.802Z,95772.63
2022-10-15T09:36:30.300Z,95771.25
2022-10-15T09:39:05.487Z,95774.88
2022-10-15T09:41:40.823Z,95778.88
2022-10-15T09:44:15.792Z,95775.16
2022-10-15T09:46:45.753Z,95777.38
2022-10-15T09:49:22.064Z,95767.69
2022-10-15T09:51:51.552Z,95770.19
2022-10-15T09:54:33.696Z,95769.06
2022-10-15T09:57:00.606Z,95784.69
2022-10-15T09:59:27.881Z,95768.31
2022-10-15T10:02:03.176Z,95775.28
2022-10-15T10:04:31.899Z,95770.56
2022-10-15T10:07:02.119Z,95770.06
2022-10-15T10:09:33.903Z,95775.50
2022-10-15T10:12:03.794Z,95782.75
2022-10-15T10:14:36.432Z,95777.38
2022-10-15T10:17:07.034Z,95772.91
2022-10-15T10:19:33.556Z,95774.66
2022-10-15T10:22:14.311Z,95775.03
2022-10-15T10:24:41.195Z,95782.25
2022-10-15T10:27:27.969Z,95776.38
2022-10-15T10:30:02.337Z,95787.25
2022-10-15T10:32:35.072Z,95785.16
2022-10-15T10:35:03.666Z,95776.63
2022-10-15T10:37:42.207Z,95776.44
2022-10-15T10:40:28.956Z,95778.16
2022-10-15T10:43:29.442Z,95790.03
2022-10-15T10:45:59.368Z,95783.69
2022-10-15T10:48:47.290Z,95782.56
2022-10-15T10:51:19.470Z,95784.00
2022-10-15T10:54:00.089Z,95787.66
2022-10-15T10:56:37.556Z,95787.19
2022-10-15T10:59:19.810Z,95791.50
2022-10-15T11:01:47.106Z,95794.72
2022-10-15T11:04:24.389Z,95788.78
2022-10-15T11:07:17.949Z,95795.19
2022-10-15T11:10:00.655Z,95792.53
2022-10-15T11:12:56.060Z,95798.38
2022-10-15T11:15:40.673Z,95803.44
2022-10-15T11:18:37.111Z,95802.16
2022-10-15T11:21:33.592Z,95811.84
2022-10-15T11:24:16.389Z,95807.13
2022-10-15T11:26:59.151Z,95801.69
2022-10-15T11:29:50.915Z,95796.59
2022-10-15T11:32:26.118Z,95798.81
2022-10-15T11:35:03.406Z,95794.44
2022-10-15T11:37:36.193Z,95798.75
2022-10-15T11:40:19.035Z,95792.28
2022-10-15T11:42:55.524Z,95782.88
2022-10-15T11:45:30.835Z,95786.31
2022-10-15T11:48:04.443Z,95782.81
2022-10-15T11:51:03.934Z,95784.66
2022-10-15T11:53:58.363Z,95783.00
2022-10-15T11:56:39.061Z,95776.88
2022-10-15T11:59:43.539Z,95774.81
2022-10-15T12:02:22.754Z,95778.97
2022-10-15T12:05:00.565Z,95767.88
2022-10-15T12:08:02.480Z,95761.78
2022-10-15T12:10:46.424Z,95772.50
2022-10-15T12:13:42.890Z,95767.22
2022-10-15T12:16:12.045Z,95771.41
2022-10-15T12:19:04.801Z,95771.16
2022-10-15T12:21:44.980Z,95769.00
2022-10-15T12:24:52.156Z,95764.47
2022-10-15T12:27:35.456Z,95760.41
2022-10-15T12:30:02.117Z,95764.69
2022-10-15T12:32:48.518Z,95764.91
2022-10-15T12:35:15.205Z,95754.78
2022-10-15T12:37:43.967Z,95749.88
2022-10-15T12:40:22.861Z,95754.69
2022-10-15T12:43:05.464Z,95754.38
2022-10-15T12:45:41.132Z,95745.84
2022-10-15T12:48:16.552Z,95737.25
2022-10-15T12:50:43.683Z,95738.88
2022-10-15T12:53:29.846Z,95739.69
2022-10-15T12:56:15.749Z,95734.03
2022-10-15T12:58:52.389Z,95745.63
2022-10-15T13:01:22.433Z,95740.75
2022-10-15T13:03:48.830Z,95742.59
2022-10-15T13:06:23.271Z,95731.63
2022-10-15T13:08:49.473Z,95732.97
2022-10-15T13:11:24.574Z,95734.59
2022-10-15T13:13:56.325Z,95737.81
2022-10-15T13:16:22.954Z,95731.06
2022-10-15T13:18:52.471Z,95739.13
2022-10-15T13:21:18.898Z,95738.91
2022-10-15T13:23:51.638Z,95728.69
2022-10-15T13:26:26.823Z,95732.19
2022-10-15T13:28:57.411Z,95728.69
2022-10-15T13:31:31.135Z,95724.91
2022-10-15T13:34:21.672Z,95727.91
2022-10-15T13:36:48.877Z,95724.13
2022-10-15T13:39:37.214Z,95732.44
2022-10-15T13:42:07.931Z,95725.47
2022-10-15T13:44:34.975Z,95732.44
2022-10-15T13:47:01.958Z,95727.09
2022-10-15T13:49:29.132Z,95737.84
2022-10-15T13:51:56.432Z,95735.38
2022-10-15T13:54:28.619Z,95745.84
2022-10-15T13:56:58.598Z,95730.00
2022-10-15T13:59:27.527Z,95729.19
2022-10-15T14:02:01.471Z,95720.34
2022-10-15T14:04:29.719Z,95717.38
2022-10-15T14:07:03.275Z,95719.00
2022-10-15T14:09:39.804Z,95721.69
2022-10-15T14:12:08.619Z,95722.22
2022-10-15T14:14:36.784Z,95726.53
2022-10-15T14:17:10.419Z,95718.75
2022-10-15T14:19:38.914Z,95735.41
2022-10-15T14:22:06.327Z,95743.19
2022-10-15T14:24:35.662Z,95743.19
2022-10-15T14:27:07.894Z,95740.78
2022-10-15T14:29:41.459Z,95734.06
2022-10-15T14:32:29.058Z,95729.47
2022-10-15T14:35:00.290Z,95732.72
2022-10-15T14:37:29.510Z,95728.16
2022-10-15T14:40:11.711Z,95735.13
2022-10-15T14:43:00.611Z,95744.78
2022-10-15T14:45:30.224Z,95750.94
2022-10-15T14:47:59.506Z,95740.19
2022-10-15T14:50:34.816Z,95741.00
2022-10-15T14:53:06.791Z,95744.50
2022-10-15T14:55:39.269Z,95748.50
2022-10-15T14:58:11.164Z,95748.25
2022-10-15T15:00:49.835Z,95743.13
2022-10-15T15:03:22.231Z,95748.22
2022-10-15T15:05:52.952Z,95737.50
2022-10-15T15:08:19.763Z,95738.84
2022-10-15T15:13:23.142Z,95750.66
2022-10-15T15:15:49.547Z,95748.50
2022-10-15T15:18:18.151Z,95741.78
2022-10-15T15:20:49.580Z,95743.09
2022-10-15T15:23:25.459Z,95741.25
2022-10-15T15:25:53.095Z,95745.78
2022-10-15T15:28:22.537Z,95744.19
2022-10-15T15:31:03.015Z,95749.28
2022-10-15T15:33:29.478Z,95748.44
2022-10-15T15:36:02.095Z,95753.31
2022-10-15T15:38:31.673Z,95751.94
2022-10-15T15:41:12.651Z,95749.47
2022-10-15T15:43:39.794Z,95747.88
2022-10-15T15:46:06.501Z,95764.53
2022-10-15T15:48:33.258Z,95759.16
2022-10-15T15:51:04.204Z,95762.28
2022-10-15T15:53:30.754Z,95758.28
2022-10-15T15:55:57.290Z,95764.19
2022-10-15T15:58:24.780Z,95761.34
2022-10-15T16:00:51.098Z,95771.03
2022-10-15T16:03:17.616Z,95777.84
2022-10-15T16:05:44.003Z,95768.06
2022-10-15T16:08:10.825Z,95761.84
2022-10-15T16:10:37.643Z,95774.88
2022-10-15T16:13:04.062Z,95778.09
2022-10-15T16:15:30.414Z,95775.66
2022-10-15T16:17:57.120Z,95767.63
2022-10-15T16:20:23.439Z,95780.44
2022-10-15T16:22:53.519Z,95780.72
2022-10-15T16:25:21.461Z,95782.56
2022-10-15T16:27:48.872Z,95782.84
2022-10-15T16:30:16.518Z,95788.47
2022-10-15T16:32:43.651Z,95789.19
2022-10-15T16:35:10.013Z,95793.75
2022-10-15T16:37:36.374Z,95801.50
2022-10-15T16:40:03.298Z,95794.50
2022-10-15T16:42:29.628Z,95804.78
2022-10-15T16:44:55.938Z,95806.88
2022-10-15T16:47:22.670Z,95803.66
2022-10-15T16:49:49.187Z,95798.81
2022-10-15T16:52:16.071Z,95807.34
2022-10-15T16:54:42.763Z,95812.66
2022-10-15T16:57:09.217Z,95824.47
2022-10-15T16:59:35.568Z,95831.19
2022-10-15T17:02:02.457Z,95830.38
2022-10-15T17:04:28.839Z,95833.03
2022-10-15T17:06:55.335Z,95833.59
2022-10-15T17:09:23.908Z,95839.16
2022-10-15T17:11:50.515Z,95840.97
2022-10-15T17:14:17.913Z,95838.38
2022-10-15T17:16:46.420Z,95844.19
2022-10-15T17:19:15.119Z,95844.41
2022-10-15T17:21:42.597Z,95848.66
2022-10-15T17:24:13.476Z,95849.13
2022-10-15T17:26:41.650Z,95857.13
2022-10-15T17:29:20.644Z,95852.88
2022-10-15T17:31:48.086Z,95849.13
2022-10-15T17:34:14.445Z,95854.16
2022-10-15T17:36:45.752Z,95856.34
2022-10-15T17:39:13.963Z,95861.50
2022-10-15T17:41:40.775Z,95869.19
2022-10-15T17:44:07.459Z,95868.81
2022-10-15T17:46:34.072Z,95869.81
2022-10-15T17:49:01.033Z,95871.63
2022-10-15T17:51:29.586Z,95881.41
2022-10-15T17:53:57.598Z,95874.63
2022-10-15T17:56:28.210Z,95881.75
2022-10-15T17:58:54.629Z,95888.75
2022-10-15T18:04:21.192Z,95880.19
2022-10-15T18:06:48.020Z,95883.47
2022-10-15T18:09:15.399Z,95879.41
2022-10-15T18:11:41.843Z,95882.28
2022-10-15T18:14:08.844Z,95874.66
2022-10-15T18:16:35.263Z,95880.75
2022-10-15T18:19:01.587Z,95879.81
2022-10-15T18:21:28.848Z,95882.63
2022-10-15T18:23:58.920Z,95883.69
2022-10-15T18:26:26.253Z,95889.28
2022-10-15T18:28:53.868Z,95893.72
2022-10-15T18:31:21.833Z,95895.59
2022-10-15T18:33:52.225Z,95888.13
2022-10-15T18:36:27.140Z,95895.84
2022-10-15T18:38:55.174Z,95889.13
2022-10-15T18:41:28.473Z,95885.88
2022-10-15T18:44:02.683Z,95896.84
2022-10-15T18:46:31.580Z,95895.84
2022-10-15T18:48:58.287Z,95900.78
2022-10-15T18:51:25.438Z,95906.31
2022-10-15T18:53:52.631Z,95910.19
2022-10-15T18:56:19.601Z,95907.59
2022-10-15T18:58:46.215Z,95920.69
2022-10-15T19:01:27.913Z,95920.03
2022-10-15T19:03:56.233Z,95915.44
2022-10-15T19:06:25.315Z,95918.75
2022-10-15T19:08:52.771Z,95909.69
2022-10-15T19:11:19.454Z,95913.97
2022-10-15T19:13:46.535Z,95917.38
2022-10-15T19:16:13.346Z,95920.84
2022-10-15T19:18:39.683Z,95918.69
2022-10-15T19:21:07.233Z,95919.91
2022-10-15T19:23:34.424Z,95924.56
2022-10-15T19:26:01.133Z,95919.41
2022-10-15T19:28:28.277Z,95934.97
2022-10-15T19:31:00.051Z,95930.50
2022-10-15T19:33:28.511Z,95923.69
2022-10-15T19:35:58.191Z,95919.91
2022-10-15T19:38:25.231Z,95919.56
2022-10-15T19:40:53.023Z,95923.13
2022-10-15T19:43:20.979Z,95927.81
2022-10-15T19:45:48.206Z,95930.56
2022-10-15T19:48:16.779Z,95925.22
2022-10-15T19:50:45.276Z,95928.84
2022-10-15T19:53:16.814Z,95935.91
2022-10-15T19:55:44.554Z,95948.59
2022-10-15T19:58:10.988Z,95949.78
2022-10-15T20:00:37.631Z,95966.53
2022-10-15T20:03:04.233Z,95967.03
2022-10-15T20:08:12.701Z,95959.63
2022-10-15T20:10:41.168Z,95965.78
2022-10-15T20:13:08.239Z,95957.38
2022-10-15T20:15:34.940Z,95964.59
2022-10-15T20:18:01.296Z,95960.72
2022-10-15T20:20:27.726Z,95963.50
2022-10-15T20:22:54.655Z,95973.94
2022-10-15T20:25:21.027Z,95977.88
2022-10-15T20:27:47.341Z,95974.44
2022-10-15T20:30:14.336Z,95984.28
2022-10-15T20:32:40.932Z,95980.84
2022-10-15T20:35:08.307Z,95987.56
2022-10-15T20:37:35.434Z,95990.34
2022-10-15T20:40:01.791Z,95988.47
2022-10-15T20:42:28.414Z,95985.78
2022-10-15T20:44:55.332Z,95991.13
2022-10-15T20:47:23.146Z,95985.88
2022-10-15T20:49:53.004Z,95994.19
2022-10-15T20:52:21.723Z,95997.34
2022-10-15T20:54:48.049Z,96004.88
2022-10-15T20:57:14.375Z,96004.94
2022-10-15T20:59:40.714Z,96000.69
2022-10-15T21:02:07.273Z,96010.88
2022-10-15T21:04:33.836Z,96019.47
2022-10-15T21:07:00.724Z,96021.75
2022-10-15T21:09:27.047Z,96021.19
2022-10-15T21:11:53.439Z,96017.44
2022-10-15T21:14:20.167Z,96015.44
2022-10-15T21:16:46.494Z,96017.53
2022-10-15T21:19:12.822Z,96045.88
2022-10-15T21:21:39.940Z,96046.94
2022-10-15T21:24:06.461Z,96049.78
2022-10-15T21:26:33.000Z,96048.09
2022-10-15T21:29:00.657Z,96042.28
2022-10-15T21:31:27.449Z,96039.81
2022-10-15T21:33:57.561Z,96049.22
2022-10-15T21:36:28.136Z,96040.19
2022-10-15T21:39:01.039Z,96039.69
2022-10-15T21:41:30.597Z,96040.66
2022-10-15T21:43:57.767Z,96042.28
2022-10-15T21:46:25.180Z,96028.84
2022-10-15T21:48:52.828Z,96038.19
2022-10-15T21:51:24.150Z,96032.91
2022-10-15T21:53:50.880Z,96036.78
2022-10-15T21:56:18.744Z,96042.28
2022-10-15T21:58:46.079Z,96050.66
2022-10-15T22:01:14.599Z,96047.28
2022-10-15T22:03:44.297Z,96047.97
2022-10-15T22:06:11.907Z,96045.09
2022-10-15T22:08:39.084Z,96040.47
2022-10-15T22:11:18.046Z,96040.72
2022-10-15T22:13:47.733Z,96043.28
2022-10-15T22:16:15.130Z,96051.28
2022-10-15T22:18:41.973Z,96047.47
2022-10-15T22:21:15.931Z,96049.00
2022-10-15T22:23:47.645Z,96052.81
2022-10-15T22:26:16.160Z,96042.25
2022-10-15T22:28:43.430Z,96047.88
2022-10-15T22:31:11.864Z,96051.06
2022-10-15T22:33:39.627Z,96037.09
2022-10-15T22:36:13.284Z,96044.34
2022-10-15T22:38:40.854Z,96049.03
2022-10-15T22:41:09.575Z,96042.06
2022-10-15T22:43:36.600Z,96049.31
2022-10-15T22:46:04.968Z,96037.47
2022-10-15T22:48:36.160Z,96042.59
2022-10-15T22:51:03.794Z,96040.44
2022-10-15T22:53:30.479Z,96037.34
2022-10-15T22:56:02.792Z,96052.16
2022-10-15T22:58:31.011Z,96060.53
2022-10-15T23:01:14.350Z,96072.91
2022-10-15T23:03:43.368Z,96073.72
2022-10-15T23:06:10.404Z,96064.22
2022-10-15T23:08:37.710Z,96060.28
2022-10-15T23:11:12.964Z,96057.97
2022-10-15T23:13:40.419Z,96070.03
2022-10-15T23:16:18.371Z,96067.13
2022-10-15T23:18:46.370Z,96072.81
2022-10-15T23:21:19.212Z,96067.00
2022-10-15T23:23:46.358Z,96060.00
2022-10-15T23:26:14.854Z,96059.31
2022-10-15T23:28:43.128Z,96068.16
2022-10-15T23:31:24.392Z,96065.84
2022-10-15T23:33:52.109Z,96060.72
2022-10-15T23:36:18.489Z,96067.94
2022-10-15T23:38:48.435Z,96072.81
2022-10-15T23:41:15.781Z,96078.63
2022-10-15T23:43:42.165Z,96076.06
2022-10-15T23:46:08.964Z,96086.28
2022-10-15T23:48:35.759Z,96075.38
2022-10-15T23:51:03.526Z,96089.03
2022-10-15T23:53:32.928Z,96096.94
2022-10-15T23:56:02.899Z,96102.38
2022-10-15T23:58:30.551Z,96102.72
